Time;durP1;ratioP1;P1;durP2;ratioP2;P2;SDS_P1;SDS_P2;PMS_P1;PMS_P2;Temp;Humidity;BMP_temperature;BMP_pressure;BME280_temperature;BME280_humidity;BME280_pressure;Samples;Min_cycle;Max_cycle;Signal;HPM_P1;HPM_P2
2022/03/04 00:00:40;;;;;;;17.08;7.93;;;;;;;-0.30;63.92;98868.28;5035645;28;20061;-71
2022/03/04 00:03:05;;;;;;;20.55;8.40;;;;;;;-0.53;64.90;98847.19;5035777;28;20029;-71
2022/03/04 00:05:31;;;;;;;16.33;8.50;;;;;;;-0.55;64.69;98867.75;5018037;28;20400;-72
2022/03/04 00:07:56;;;;;;;17.17;7.97;;;;;;;-0.61;65.47;98864.78;5033171;28;20131;-71
2022/03/04 00:10:21;;;;;;;17.17;8.43;;;;;;;-0.36;65.19;98872.31;5011785;28;20734;-72
2022/03/04 00:12:46;;;;;;;19.15;8.57;;;;;;;-0.58;64.96;98856.53;5020877;28;20025;-72
2022/03/04 00:15:12;;;;;;;20.88;8.35;;;;;;;-0.61;64.68;98856.81;5014480;28;20053;-71
2022/03/04 00:17:37;;;;;;;19.67;9.15;;;;;;;-0.57;64.06;98872.34;5037816;28;20021;-71
2022/03/04 00:20:03;;;;;;;17.13;8.32;;;;;;;-0.64;64.74;98857.06;5034004;28;20393;-72
2022/03/04 00:22:28;;;;;;;18.75;8.15;;;;;;;-0.56;64.61;98875.84;5034493;28;20029;-72
2022/03/04 00:24:54;;;;;;;22.40;8.98;;;;;;;-0.56;64.51;98886.47;5035802;28;20033;-72
2022/03/04 00:27:19;;;;;;;19.02;8.55;;;;;;;-0.52;64.54;98898.53;5035460;28;20095;-72
2022/03/04 00:29:44;;;;;;;19.30;8.90;;;;;;;-0.57;64.60;98900.75;5031472;28;20040;-71
2022/03/04 00:32:09;;;;;;;23.13;9.25;;;;;;;-0.58;63.94;98905.19;5035665;28;20061;-72
2022/03/04 00:34:36;;;;;;;17.75;8.30;;;;;;;-0.61;64.01;98905.47;5034039;28;20026;-72
2022/03/04 00:37:01;;;;;;;17.15;7.90;;;;;;;-0.78;64.40;98876.84;5035569;28;20025;-72
2022/03/04 00:39:27;;;;;;;20.98;8.95;;;;;;;-0.72;64.71;98895.75;5035703;28;20428;-71
2022/03/04 00:41:52;;;;;;;20.10;8.57;;;;;;;-0.65;64.10;98908.53;5036563;28;20429;-71
2022/03/04 00:44:17;;;;;;;18.15;8.18;;;;;;;-0.42;63.38;98912.69;5040759;28;20068;-72
2022/03/04 00:46:43;;;;;;;19.77;8.63;;;;;;;-0.35;62.72;98918.34;5033354;28;20041;-71
2022/03/04 00:49:08;;;;;;;18.52;8.77;;;;;;;-0.27;63.25;98907.91;5015335;28;20032;-71
2022/03/04 00:51:33;;;;;;;18.02;7.70;;;;;;;-0.32;61.27;98884.38;5036593;28;20021;-72
2022/03/04 00:53:59;;;;;;;20.55;8.45;;;;;;;-0.11;61.22;98915.41;5037409;28;20021;-71
2022/03/04 00:56:24;;;;;;;21.50;8.40;;;;;;;-0.12;60.93;98913.72;5017830;28;20032;-73
2022/03/04 00:58:49;;;;;;;21.05;8.75;;;;;;;-0.10;61.04;98901.13;5033455;28;20033;-71
2022/03/04 01:01:16;;;;;;;19.23;8.07;;;;;;;-0.09;60.94;98916.09;5038118;28;20025;-71
2022/03/04 01:03:41;;;;;;;22.00;9.90;;;;;;;0.01;59.89;98903.69;5037066;28;20029;-71
2022/03/04 01:06:07;;;;;;;20.17;8.63;;;;;;;-0.27;61.61;98882.16;5013347;28;20017;-72
2022/03/04 01:08:33;;;;;;;19.33;9.13;;;;;;;-0.15;61.78;98892.72;5032062;28;20048;-73
2022/03/04 01:10:59;;;;;;;20.42;9.15;;;;;;;-0.22;62.03;98906.53;5034403;28;20025;-71
2022/03/04 01:13:24;;;;;;;19.75;9.18;;;;;;;-0.48;62.11;98884.00;5034392;28;20025;-71
2022/03/04 01:15:50;;;;;;;19.98;8.68;;;;;;;-0.48;63.25;98921.22;5024307;28;20038;-71
2022/03/04 01:18:16;;;;;;;22.10;9.35;;;;;;;-0.62;63.97;98916.25;5029379;28;20465;-71
2022/03/04 01:20:42;;;;;;;19.40;8.60;;;;;;;-0.59;64.37;98898.22;5012286;28;20135;-71
2022/03/04 01:23:07;;;;;;;19.48;8.88;;;;;;;-0.50;64.11;98909.84;5032722;28;20025;-72
2022/03/04 01:25:32;;;;;;;24.20;8.40;;;;;;;-0.58;64.65;98918.47;5034366;28;20051;-72
2022/03/04 01:27:59;;;;;;;19.23;8.90;;;;;;;-0.74;64.21;98904.81;5019500;28;20017;-71
2022/03/04 01:30:24;;;;;;;20.23;9.05;;;;;;;-0.94;64.45;98894.06;5034441;28;20389;-73
2022/03/04 01:32:49;;;;;;;18.85;8.15;;;;;;;-1.13;65.46;98878.81;5031071;28;20029;-73
2022/03/04 01:35:15;;;;;;;21.52;9.13;;;;;;;-0.97;65.38;98909.38;5038062;28;20029;-74
2022/03/04 01:37:40;;;;;;;20.20;9.15;;;;;;;-1.09;65.15;98868.78;5034138;28;20542;-74
2022/03/04 01:40:09;;;;;;;16.50;8.48;;;;;;;-1.01;65.70;98884.91;5030998;28;20503;-73
2022/03/04 01:42:35;;;;;;;13.95;6.70;;;;;;;-1.01;65.45;98903.50;5029407;28;20024;-73
2022/03/04 01:45:01;;;;;;;17.90;8.75;;;;;;;-1.47;66.31;98848.91;5011731;28;20515;-73
2022/03/04 01:47:26;;;;;;;18.55;9.20;;;;;;;-1.15;67.00;98903.81;5026532;28;20021;-73
2022/03/04 01:49:52;;;;;;;18.70;8.85;;;;;;;-1.27;66.21;98865.84;5015805;28;20028;-74
2022/03/04 01:52:17;;;;;;;20.35;9.88;;;;;;;-1.19;66.56;98883.78;5014111;28;20627;-74
2022/03/04 01:54:43;;;;;;;19.13;9.07;;;;;;;-1.47;66.96;98874.59;5006843;28;21352;-72
2022/03/04 01:57:09;;;;;;;22.13;9.35;;;;;;;-1.48;68.10;98859.66;5025284;28;20057;-71
2022/03/04 01:59:34;;;;;;;22.38;9.05;;;;;;;-1.47;67.90;98858.66;5008042;28;20040;-71
2022/03/04 02:02:00;;;;;;;21.20;8.75;;;;;;;-1.32;68.09;98894.56;5026854;28;20033;-73
2022/03/04 02:04:26;;;;;;;21.38;8.73;;;;;;;-1.41;68.43;98887.38;5033420;28;20063;-72
2022/03/04 02:06:52;;;;;;;19.67;8.77;;;;;;;-1.44;67.45;98855.75;5015365;28;20021;-73
2022/03/04 02:09:17;;;;;;;17.70;7.82;;;;;;;-1.51;67.14;98836.03;5034003;28;20036;-73
2022/03/04 02:11:44;;;;;;;17.27;8.07;;;;;;;-1.50;66.80;98835.88;5032400;28;20033;-73
2022/03/04 02:14:13;;;;;;;20.52;8.65;;;;;;;-1.27;66.91;98870.31;5031880;28;20052;-70
2022/03/04 02:17:00;;;;;;;22.35;9.20;;;;;;;-1.32;67.15;98881.31;5025583;28;20040;-70
2022/03/04 02:19:25;;;;;;;16.80;8.48;;;;;;;-1.39;67.17;98856.22;5010435;28;21255;-71
2022/03/04 02:22:00;;;;;;;21.40;8.60;;;;;;;-1.40;66.67;98852.72;5009946;28;20029;-72
2022/03/04 02:24:27;;;;;;;21.52;8.60;;;;;;;-1.30;67.37;98865.25;5039247;28;20029;-72
2022/03/04 02:26:53;;;;;;;17.00;8.48;;;;;;;-1.47;67.55;98864.81;5032808;28;20032;-72
2022/03/04 02:29:19;;;;;;;20.90;9.27;;;;;;;-1.69;68.21;98868.38;5014340;28;20040;-71
2022/03/04 02:31:45;;;;;;;20.52;8.80;;;;;;;-1.76;68.83;98875.16;5028678;28;20030;-71
2022/03/04 02:34:11;;;;;;;19.45;8.50;;;;;;;-1.94;69.07;98848.28;5032142;28;20049;-72
2022/03/04 02:36:37;;;;;;;18.25;8.50;;;;;;;-1.73;70.20;98885.50;5032791;28;20529;-73
2022/03/04 02:39:04;;;;;;;20.70;8.98;;;;;;;-1.91;70.03;98855.16;5014980;28;20035;-72
2022/03/04 02:41:30;;;;;;;22.75;9.55;;;;;;;-1.79;69.01;98856.84;5025201;28;20519;-71
2022/03/04 02:43:56;;;;;;;17.95;8.95;;;;;;;-1.72;68.13;98846.59;5036475;28;20412;-72
2022/03/04 02:46:21;;;;;;;21.67;8.65;;;;;;;-1.55;67.41;98873.44;5032498;28;20035;-71
2022/03/04 02:48:47;;;;;;;19.58;8.23;;;;;;;-1.79;67.87;98835.63;5017548;28;20064;-72
2022/03/04 02:51:12;;;;;;;18.27;9.15;;;;;;;-1.63;68.60;98878.50;5028596;28;20027;-70
2022/03/04 02:53:37;;;;;;;22.00;9.23;;;;;;;-1.86;68.78;98848.53;5037240;28;20044;-72
2022/03/04 02:56:03;;;;;;;21.02;9.18;;;;;;;-1.81;69.02;98869.38;5032247;28;20032;-72
2022/03/04 02:58:28;;;;;;;18.42;8.00;;;;;;;-1.72;68.56;98887.22;5021113;28;20559;-72
2022/03/04 03:00:54;;;;;;;17.88;8.18;;;;;;;-1.72;68.60;98884.56;5002109;28;20024;-70
2022/03/04 03:03:19;;;;;;;18.88;8.95;;;;;;;-1.95;68.78;98853.72;5024580;28;20051;-72
2022/03/04 03:05:44;;;;;;;21.75;9.10;;;;;;;-2.03;69.21;98860.47;5015075;28;20024;-72
2022/03/04 03:08:11;;;;;;;17.30;8.32;;;;;;;-1.83;70.22;98873.97;5032464;28;20025;-72
2022/03/04 03:10:36;;;;;;;22.80;9.65;;;;;;;-2.03;69.70;98849.88;5027120;28;20077;-71
2022/03/04 03:13:02;;;;;;;21.70;9.60;;;;;;;-1.91;69.86;98868.41;5025918;28;20029;-71
2022/03/04 03:15:27;;;;;;;21.27;10.35;;;;;;;-1.90;70.62;98872.78;5008148;28;20041;-72
2022/03/04 03:17:54;;;;;;;21.83;9.13;;;;;;;-1.95;70.43;98890.84;5006331;28;20029;-72
2022/03/04 03:20:19;;;;;;;20.83;9.20;;;;;;;-2.15;71.26;98858.78;5031324;28;20033;-72
2022/03/04 03:22:44;;;;;;;23.88;9.77;;;;;;;-2.11;71.33;98872.66;5013628;28;20051;-72
2022/03/04 03:25:10;;;;;;;18.80;8.68;;;;;;;-1.99;71.90;98888.44;5032446;28;20033;-71
2022/03/04 03:27:36;;;;;;;23.50;9.52;;;;;;;-2.30;72.44;98871.47;5014707;28;20024;-71
2022/03/04 03:30:03;;;;;;;24.05;10.02;;;;;;;-2.50;72.89;98858.94;5011141;28;20661;-72
2022/03/04 03:32:29;;;;;;;19.75;8.65;;;;;;;-2.27;73.26;98892.44;5003817;28;20030;-72
2022/03/04 03:34:54;;;;;;;20.65;9.30;;;;;;;-2.34;74.47;98900.97;5013596;28;20040;-72
2022/03/04 03:37:19;;;;;;;17.17;8.68;;;;;;;-2.58;74.65;98862.19;5012010;28;20080;-72
2022/03/04 03:39:45;;;;;;;23.52;10.50;;;;;;;-2.66;74.99;98869.88;5021584;28;20159;-72
2022/03/04 03:42:10;;;;;;;26.52;9.48;;;;;;;-2.71;73.77;98850.84;5024860;28;20679;-72
2022/03/04 03:44:35;;;;;;;23.30;9.63;;;;;;;-2.60;74.38;98911.75;5025493;28;20366;-72
2022/03/04 03:47:01;;;;;;;24.48;10.52;;;;;;;-2.72;76.07;98880.94;5011809;28;20312;-72
2022/03/04 03:49:26;;;;;;;23.77;9.70;;;;;;;-2.54;75.09;98898.06;5031566;28;20029;-72
2022/03/04 03:51:51;;;;;;;22.05;9.43;;;;;;;-2.78;75.53;98865.50;5031355;28;20033;-71
2022/03/04 03:54:17;;;;;;;22.02;9.82;;;;;;;-2.53;75.71;98918.28;5032097;28;20036;-72
2022/03/04 03:56:42;;;;;;;22.48;8.90;;;;;;;-2.80;76.04;98880.66;5026219;28;20083;-71
2022/03/04 03:59:08;;;;;;;20.10;9.35;;;;;;;-2.52;76.11;98917.31;5024406;28;20061;-69
2022/03/04 04:01:33;;;;;;;22.23;10.00;;;;;;;-2.91;76.92;98882.34;5005665;28;20408;-72
2022/03/04 04:03:59;;;;;;;26.13;10.55;;;;;;;-2.89;77.03;98898.94;5025368;28;20512;-69
2022/03/04 04:06:24;;;;;;;20.08;8.45;;;;;;;-2.87;77.58;98894.38;5006295;28;20020;-71
2022/03/04 04:08:50;;;;;;;24.38;10.38;;;;;;;-3.30;77.83;98830.63;5024690;28;20037;-70
2022/03/04 04:11:15;;;;;;;22.83;10.40;;;;;;;-3.01;77.51;98889.28;5024588;28;20024;-71
2022/03/04 04:13:40;;;;;;;23.20;9.48;;;;;;;-2.69;78.14;98934.50;5011856;28;20021;-72
2022/03/04 04:16:06;;;;;;;26.63;10.02;;;;;;;-2.78;77.60;98931.69;5006019;28;20135;-71
2022/03/04 04:18:31;;;;;;;26.77;9.57;;;;;;;-2.85;78.34;98935.78;5011643;28;20029;-71
2022/03/04 04:20:57;;;;;;;21.95;8.68;;;;;;;-3.03;78.36;98920.31;5033803;28;20685;-71
2022/03/04 04:23:22;;;;;;;24.77;10.50;;;;;;;-2.96;78.25;98896.88;5005982;28;20040;-71
2022/03/04 04:25:48;;;;;;;23.30;10.38;;;;;;;-3.00;79.02;98913.94;5024438;28;20086;-72
2022/03/04 04:28:13;;;;;;;24.85;10.45;;;;;;;-2.97;78.24;98897.84;5020541;28;20111;-72
2022/03/04 04:30:38;;;;;;;22.75;10.20;;;;;;;-3.19;78.54;98875.63;5031050;28;20052;-71
2022/03/04 04:33:04;;;;;;;23.75;9.73;;;;;;;-3.12;78.54;98879.53;5030216;28;20117;-72
2022/03/04 04:35:29;;;;;;;22.35;10.10;;;;;;;-3.05;79.06;98890.47;5034666;28;20095;-73
2022/03/04 04:37:55;;;;;;;24.70;10.60;;;;;;;-3.12;79.27;98916.56;5032447;28;20033;-72
2022/03/04 04:40:20;;;;;;;19.10;9.63;;;;;;;-3.00;79.70;98928.03;5031878;28;20044;-72
2022/03/04 04:42:46;;;;;;;23.25;10.23;;;;;;;-3.04;79.90;98929.19;5039781;28;20037;-71
2022/03/04 04:45:11;;;;;;;22.13;10.00;;;;;;;-3.22;79.87;98883.81;5020468;28;20397;-72
2022/03/04 04:47:37;;;;;;;23.88;10.30;;;;;;;-3.02;79.27;98921.16;5035151;28;20064;-72
2022/03/04 04:50:04;;;;;;;25.38;10.77;;;;;;;-3.03;79.93;98938.84;5017936;28;20044;-72
2022/03/04 04:52:29;;;;;;;25.75;10.85;;;;;;;-3.04;79.75;98939.78;5032503;28;20044;-72
2022/03/04 04:54:54;;;;;;;21.85;8.88;;;;;;;-3.15;79.08;98916.78;5032800;28;20029;-72
2022/03/04 04:57:20;;;;;;;27.65;10.55;;;;;;;-3.14;79.52;98925.56;5008472;28;20036;-72
2022/03/04 04:59:45;;;;;;;25.83;10.13;;;;;;;-3.26;79.42;98892.06;5017583;28;20488;-77
2022/03/04 05:02:10;;;;;;;20.13;9.20;;;;;;;-3.08;79.70;98928.59;5018988;28;20639;-75
2022/03/04 05:04:36;;;;;;;25.63;10.60;;;;;;;-3.36;80.08;98884.81;5031424;28;20021;-74
2022/03/04 05:07:02;;;;;;;29.63;12.15;;;;;;;-3.14;80.02;98930.88;5036928;28;20155;-73
2022/03/04 05:09:27;;;;;;;28.55;12.63;;;;;;;-3.20;81.37;98942.72;5052175;28;20078;-74
2022/03/04 05:11:53;;;;;;;33.15;13.25;;;;;;;-3.44;81.26;98913.63;5041079;28;20120;-74
2022/03/04 05:14:18;;;;;;;29.00;12.00;;;;;;;-3.29;82.24;98961.09;5035790;28;20033;-74
2022/03/04 05:16:44;;;;;;;25.85;12.35;;;;;;;-3.85;82.43;98888.41;5034619;28;20040;-74
2022/03/04 05:19:09;;;;;;;25.00;11.07;;;;;;;-3.58;83.22;98942.91;5018334;28;20036;-79
2022/03/04 05:21:34;;;;;;;23.52;11.68;;;;;;;-3.85;83.29;98916.63;5024932;28;20451;-76
2022/03/04 05:24:00;;;;;;;22.35;11.48;;;;;;;-3.75;84.07;98930.88;5043319;28;20035;-74
2022/03/04 05:26:31;;;;;;;22.92;10.77;;;;;;;-3.76;83.78;98951.19;5037623;28;20051;-72
2022/03/04 05:28:58;;;;;;;23.65;11.85;;;;;;;-3.81;83.73;98942.72;5027328;28;20093;-71
2022/03/04 05:31:23;;;;;;;23.33;11.18;;;;;;;-3.92;83.86;98961.16;5055885;28;20052;-76
2022/03/04 05:33:50;;;;;;;25.80;11.75;;;;;;;-4.12;84.65;98940.56;5040953;28;20026;-75
2022/03/04 05:36:16;;;;;;;27.17;12.02;;;;;;;-4.13;85.38;98923.03;5061646;28;20025;-73
2022/03/04 05:38:41;;;;;;;27.33;11.25;;;;;;;-4.04;85.59;98969.94;5050661;28;20037;-72
2022/03/04 05:41:06;;;;;;;25.58;11.27;;;;;;;-3.99;86.06;98970.47;5034279;28;20039;-68
2022/03/04 05:43:32;;;;;;;26.98;11.57;;;;;;;-4.24;86.15;98935.19;5022133;28;20021;-70
2022/03/04 05:45:57;;;;;;;26.73;12.50;;;;;;;-4.02;86.92;98960.09;5027038;28;20026;-70
2022/03/04 05:48:22;;;;;;;29.58;10.77;;;;;;;-3.98;87.00;98953.66;5029588;28;20087;-70
2022/03/04 05:50:48;;;;;;;29.90;11.63;;;;;;;-4.20;86.00;98960.44;5031574;28;20029;-72
2022/03/04 05:53:14;;;;;;;25.00;10.52;;;;;;;-4.10;86.72;98967.72;5034883;28;20030;-72
2022/03/04 05:55:39;;;;;;;24.38;11.35;;;;;;;-4.27;87.33;98953.03;5017373;28;20639;-71
2022/03/04 05:58:05;;;;;;;29.08;12.07;;;;;;;-4.11;88.12;98976.59;5014941;28;20029;-74
2022/03/04 06:00:31;;;;;;;26.10;11.63;;;;;;;-4.13;87.84;98970.59;5030646;28;20420;-71
2022/03/04 06:02:57;;;;;;;27.48;11.55;;;;;;;-3.89;88.01;98973.31;5013136;28;20103;-72
2022/03/04 06:05:22;;;;;;;39.05;16.30;;;;;;;-4.08;86.65;98932.31;5034734;28;20060;-71
2022/03/04 06:07:47;;;;;;;36.97;15.75;;;;;;;-3.86;85.82;98968.66;5018658;28;20480;-71
2022/03/04 06:10:13;;;;;;;37.65;15.02;;;;;;;-3.72;85.59;98967.69;5037379;28;20033;-70
2022/03/04 06:12:38;;;;;;;35.42;15.63;;;;;;;-3.72;85.52;98980.03;5016738;28;20146;-68
2022/03/04 06:15:04;;;;;;;42.08;16.17;;;;;;;-3.88;85.42;98959.97;5034615;28;20028;-70
2022/03/04 06:17:29;;;;;;;35.05;15.27;;;;;;;-3.89;86.09;98973.31;5032549;28;20043;-73
2022/03/04 06:19:55;;;;;;;33.60;15.25;;;;;;;-3.99;85.98;98955.44;5030928;28;20026;-70
2022/03/04 06:22:21;;;;;;;35.65;15.63;;;;;;;-3.73;85.87;98984.47;5011220;28;20472;-69
2022/03/04 06:24:46;;;;;;;35.85;15.80;;;;;;;-3.70;85.50;98975.50;5048906;28;20112;-71
2022/03/04 06:27:12;;;;;;;30.98;14.40;;;;;;;-3.54;85.08;98979.59;5044721;28;20029;-73
2022/03/04 06:29:37;;;;;;;35.70;14.05;;;;;;;-2.43;82.65;98982.84;5054937;28;20041;-71
2022/03/04 06:32:03;;;;;;;30.15;13.43;;;;;;;-0.27;71.02;98964.56;5055646;28;20026;-75
2022/03/04 06:34:28;;;;;;;27.77;12.25;;;;;;;1.81;63.31;98986.91;5055988;28;20026;-71
2022/03/04 06:36:54;;;;;;;29.25;12.73;;;;;;;3.32;57.87;98970.56;5046524;28;20037;-70
2022/03/04 06:39:19;;;;;;;24.67;11.27;;;;;;;4.20;53.17;98957.19;5006864;28;20033;-73
2022/03/04 06:41:44;;;;;;;25.63;11.30;;;;;;;5.21;49.92;98972.44;5015220;28;20045;-71
2022/03/04 06:44:10;;;;;;;25.60;11.38;;;;;;;5.59;49.23;98967.47;5035179;28;20087;-74
2022/03/04 06:46:35;;;;;;;32.00;11.88;;;;;;;6.37;47.85;98977.66;5014623;28;20025;-75
2022/03/04 06:49:00;;;;;;;29.27;14.32;;;;;;;6.60;44.53;99007.28;5027241;28;20752;-74
2022/03/04 06:51:26;;;;;;;28.50;12.38;;;;;;;6.80;45.03;99005.03;5031263;28;20064;-71
2022/03/04 06:53:52;;;;;;;25.10;12.68;;;;;;;7.27;44.62;98976.41;5030208;28;20029;-74
2022/03/04 06:56:17;;;;;;;24.00;12.25;;;;;;;7.30;44.08;99014.56;5024372;28;20503;-75
2022/03/04 06:58:43;;;;;;;24.58;12.98;;;;;;;7.75;41.94;98998.59;5013837;28;20106;-74
2022/03/04 07:01:08;;;;;;;27.98;13.80;;;;;;;8.08;40.81;99018.03;5029351;28;20527;-70
2022/03/04 07:03:34;;;;;;;25.20;13.75;;;;;;;8.20;41.70;99004.94;5026604;28;20024;-73
2022/03/04 07:05:59;;;;;;;21.48;13.30;;;;;;;9.67;39.65;99013.97;5027702;28;20373;-71
2022/03/04 07:08:24;;;;;;;26.55;13.48;;;;;;;9.32;39.63;99002.13;5029123;28;20037;-74
2022/03/04 07:10:50;;;;;;;23.58;13.77;;;;;;;9.02;39.21;98995.97;5027904;28;20033;-72
2022/03/04 07:13:15;;;;;;;24.83;14.07;;;;;;;10.74;37.55;99021.06;5027897;28;20436;-70
2022/03/04 07:15:41;;;;;;;23.77;13.43;;;;;;;10.81;36.73;98999.47;5013974;28;20026;-70
2022/03/04 07:18:06;;;;;;;28.23;14.32;;;;;;;10.22;37.25;99020.50;5031330;28;20029;-71
2022/03/04 07:20:32;;;;;;;24.83;14.10;;;;;;;10.30;37.60;99017.66;5028250;28;20029;-71
2022/03/04 07:22:57;;;;;;;25.67;14.02;;;;;;;10.65;36.26;99020.41;5033994;28;20134;-67
2022/03/04 07:25:23;;;;;;;24.60;14.85;;;;;;;11.21;36.32;99034.84;5024761;28;20033;-68
2022/03/04 07:27:48;;;;;;;22.90;12.75;;;;;;;12.06;35.34;99018.00;5027748;28;20037;-70
2022/03/04 07:30:16;;;;;;;23.55;14.38;;;;;;;12.60;34.18;99012.53;5034449;28;20017;-70
2022/03/04 07:32:42;;;;;;;25.83;13.45;;;;;;;13.63;32.08;99012.63;5031677;28;20407;-73
2022/03/04 07:35:09;;;;;;;23.98;14.32;;;;;;;13.42;31.56;99002.09;5009256;28;20033;-72
2022/03/04 07:37:36;;;;;;;26.55;14.25;;;;;;;14.16;30.43;99023.16;5028617;28;20033;-73
2022/03/04 07:40:03;;;;;;;23.67;14.32;;;;;;;13.07;32.37;98997.81;5026528;28;20120;-66
2022/03/04 07:42:29;;;;;;;21.38;13.50;;;;;;;14.09;30.67;99016.91;5026150;28;20048;-68
2022/03/04 07:44:54;;;;;;;19.05;12.98;;;;;;;14.99;29.59;99022.00;5029335;28;20045;-69
2022/03/04 07:47:19;;;;;;;23.45;14.02;;;;;;;15.39;29.41;99021.50;5027443;28;20029;-65
2022/03/04 07:49:45;;;;;;;23.05;12.85;;;;;;;15.89;29.00;99010.34;5031322;28;20511;-66
2022/03/04 07:52:11;;;;;;;23.02;14.75;;;;;;;16.07;28.32;99008.63;5031538;28;20025;-65
2022/03/04 07:54:36;;;;;;;23.40;14.82;;;;;;;15.69;28.60;99015.25;5030769;28;20027;-65
2022/03/04 07:57:02;;;;;;;21.10;14.00;;;;;;;16.37;28.05;99020.31;5026848;28;20041;-74
2022/03/04 07:59:27;;;;;;;24.10;15.35;;;;;;;16.62;26.96;99013.78;5027449;28;20057;-76
2022/03/04 08:01:52;;;;;;;21.27;14.15;;;;;;;17.28;26.68;99019.91;5008531;28;20064;-71
2022/03/04 08:04:18;;;;;;;21.88;14.57;;;;;;;17.48;26.11;99019.50;5024835;28;20037;-69
2022/03/04 08:06:43;;;;;;;22.75;14.80;;;;;;;17.59;26.08;98996.75;5008663;28;20028;-72
2022/03/04 08:09:08;;;;;;;22.55;14.75;;;;;;;16.65;27.60;98991.47;5030220;28;20440;-71
2022/03/04 08:11:34;;;;;;;23.02;15.75;;;;;;;16.53;27.40;99023.41;5031594;28;20055;-70
2022/03/04 08:14:00;;;;;;;21.50;15.05;;;;;;;16.27;27.34;98995.50;5028032;28;20132;-69
2022/03/04 08:16:25;;;;;;;22.65;15.00;;;;;;;17.03;27.21;99022.97;5029141;28;20151;-68
2022/03/04 08:18:52;;;;;;;23.40;15.85;;;;;;;17.44;26.73;99029.25;5028977;28;20045;-68
2022/03/04 08:21:17;;;;;;;22.33;15.40;;;;;;;18.21;26.61;99030.72;5031022;28;22015;-69
2022/03/04 08:23:42;;;;;;;23.92;15.50;;;;;;;18.40;26.09;99023.94;5027397;28;20056;-70
2022/03/04 08:26:09;;;;;;;21.35;14.75;;;;;;;18.62;25.44;99026.75;5031418;28;20018;-66
2022/03/04 08:28:34;;;;;;;21.92;15.85;;;;;;;17.66;25.53;99029.44;5035471;28;20431;-65
2022/03/04 08:31:00;;;;;;;23.23;16.05;;;;;;;17.27;25.49;99030.03;5033856;28;20029;-71
2022/03/04 08:33:27;;;;;;;24.65;16.08;;;;;;;17.52;24.69;99016.03;5008746;28;20075;-76
2022/03/04 08:35:52;;;;;;;28.40;17.58;;;;;;;16.38;26.79;99038.34;5016861;28;20033;-75
2022/03/04 08:38:18;;;;;;;23.30;15.98;;;;;;;18.30;24.22;99010.06;5029794;28;20063;-75
2022/03/04 08:40:43;;;;;;;24.50;17.25;;;;;;;17.92;24.95;99039.81;5034195;28;20051;-73
2022/03/04 08:43:09;;;;;;;27.88;17.90;;;;;;;18.12;23.72;99022.91;5030170;28;20033;-74
2022/03/04 08:45:34;;;;;;;25.35;16.70;;;;;;;16.47;26.67;99029.81;5035155;28;20624;-74
2022/03/04 08:48:00;;;;;;;27.13;16.67;;;;;;;17.89;24.69;99020.31;5035126;28;20026;-73
2022/03/04 08:50:25;;;;;;;26.10;16.58;;;;;;;18.94;23.22;99029.75;5018958;28;20102;-73
2022/03/04 08:52:51;;;;;;;25.80;16.10;;;;;;;18.70;23.50;99044.69;5010897;28;20473;-76
2022/03/04 08:55:17;;;;;;;26.40;16.40;;;;;;;17.57;25.20;99056.34;5014335;28;20025;-65
2022/03/04 08:57:46;;;;;;;26.02;17.00;;;;;;;17.23;25.02;99047.16;5021408;28;20587;-72
2022/03/04 09:00:14;;;;;;;23.08;16.15;;;;;;;17.53;25.02;99052.44;5025925;28;20028;-66
2022/03/04 09:02:39;;;;;;;22.98;16.63;;;;;;;18.36;23.92;99034.53;5028263;28;20102;-66
2022/03/04 09:05:05;;;;;;;27.58;17.17;;;;;;;17.74;24.78;99037.25;5032883;28;20112;-67
2022/03/04 09:07:32;;;;;;;23.83;16.08;;;;;;;18.39;24.33;99033.22;5028114;28;20113;-67
2022/03/04 09:09:57;;;;;;;25.80;17.02;;;;;;;18.77;23.63;99023.44;5036900;28;20033;-63
2022/03/04 09:12:22;;;;;;;22.90;16.23;;;;;;;19.47;23.18;99032.91;5032388;28;20047;-64
2022/03/04 09:14:47;;;;;;;23.27;16.20;;;;;;;19.21;23.09;99012.53;5025199;28;20037;-66
2022/03/04 09:17:13;;;;;;;23.98;16.63;;;;;;;19.61;22.62;99031.41;5023863;28;20048;-66
2022/03/04 09:19:39;;;;;;;29.50;17.75;;;;;;;19.49;23.04;99034.31;5025931;28;20025;-65
2022/03/04 09:22:04;;;;;;;24.40;15.98;;;;;;;20.28;21.18;99030.22;5029613;28;20075;-69
2022/03/04 09:24:29;;;;;;;24.95;16.45;;;;;;;19.64;21.56;99021.84;5028851;28;20120;-68
2022/03/04 09:26:55;;;;;;;23.63;16.48;;;;;;;20.07;21.23;99022.88;5031357;28;20029;-69
2022/03/04 09:29:20;;;;;;;25.27;16.38;;;;;;;18.98;21.70;99017.16;5029162;28;20057;-73
2022/03/04 09:31:46;;;;;;;25.05;15.57;;;;;;;17.21;23.54;99031.00;5018407;28;20501;-70
2022/03/04 09:34:12;;;;;;;22.08;14.15;;;;;;;19.38;21.24;99020.69;5034161;28;20026;-74
2022/03/04 09:36:38;;;;;;;23.48;15.52;;;;;;;16.90;23.06;99001.31;5016092;28;20022;-75
2022/03/04 09:39:04;;;;;;;24.00;16.23;;;;;;;17.41;22.95;99027.03;5029054;28;20039;-76
2022/03/04 09:41:30;;;;;;;24.40;15.85;;;;;;;17.51;23.50;99010.81;5008413;28;20540;-71
2022/03/04 09:43:56;;;;;;;25.42;15.70;;;;;;;17.95;23.01;99017.44;5013736;28;20025;-71
2022/03/04 09:46:22;;;;;;;26.80;15.88;;;;;;;18.39;22.73;99014.91;5033618;28;20428;-71
2022/03/04 09:48:49;;;;;;;25.05;15.48;;;;;;;18.67;20.55;99026.00;5033575;28;20104;-71
2022/03/04 09:51:15;;;;;;;24.88;15.50;;;;;;;19.03;20.80;99032.88;5033199;28;20040;-71
2022/03/04 09:53:40;;;;;;;21.15;14.00;;;;;;;18.37;20.99;99014.31;5030151;28;21837;-73
2022/03/04 09:56:06;;;;;;;21.65;14.50;;;;;;;18.61;20.96;99001.25;5032197;28;20033;-70
2022/03/04 09:58:31;;;;;;;23.33;14.77;;;;;;;19.89;19.71;99026.81;5006864;28;20132;-71
2022/03/04 10:00:56;;;;;;;21.17;14.60;;;;;;;19.56;19.98;99027.78;5019787;28;20060;-70
2022/03/04 10:03:30;;;;;;;23.15;15.05;;;;;;;18.90;20.57;99034.06;5022475;28;20441;-74
2022/03/04 10:06:00;;;;;;;21.85;14.52;;;;;;;18.78;19.84;99030.59;5033038;28;20052;-73
2022/03/04 10:08:25;;;;;;;22.00;13.52;;;;;;;17.96;20.47;99023.72;5031934;28;20445;-71
2022/03/04 10:10:56;;;;;;;24.80;14.05;;;;;;;16.58;21.83;99007.97;5029848;28;20112;-71
2022/03/04 10:13:37;;;;;;;22.17;14.05;;;;;;;17.30;21.56;99015.88;5033530;28;20060;-73
2022/03/04 10:16:03;;;;;;;22.80;13.80;;;;;;;17.16;20.85;99013.63;5033517;28;20040;-69
2022/03/04 10:18:29;;;;;;;21.10;13.77;;;;;;;16.79;21.75;98992.06;5032913;28;20028;-73
2022/03/04 10:20:54;;;;;;;24.05;14.50;;;;;;;17.31;20.94;99001.09;5014484;28;20064;-73
2022/03/04 10:23:25;;;;;;;24.08;14.10;;;;;;;17.46;21.18;99029.84;5027987;28;20080;-72
2022/03/04 10:25:53;;;;;;;22.05;13.70;;;;;;;18.48;20.27;99026.25;5014833;28;20084;-74
2022/03/04 10:28:23;;;;;;;23.48;14.23;;;;;;;18.23;20.06;99010.22;5033831;28;20045;-78
2022/03/04 10:30:50;;;;;;;22.45;13.65;;;;;;;18.91;19.41;98994.59;5015983;28;20025;-72
2022/03/04 10:33:18;;;;;;;20.10;12.52;;;;;;;17.84;20.31;98999.16;5026259;28;20037;-73
2022/03/04 10:35:45;;;;;;;20.90;13.70;;;;;;;16.34;21.40;99012.56;5013223;28;20026;-73
2022/03/04 10:38:23;;;;;;;21.17;13.05;;;;;;;15.56;22.24;99011.66;5030954;28;20040;-68
2022/03/04 10:40:49;;;;;;;25.33;13.93;;;;;;;16.41;21.98;99015.22;5013374;28;20026;-69
2022/03/04 10:43:22;;;;;;;20.48;13.57;;;;;;;17.02;21.21;99007.59;5031718;28;20026;-69
2022/03/04 10:45:57;;;;;;;23.02;13.32;;;;;;;16.68;21.59;98993.72;5032145;28;20028;-69
2022/03/04 10:48:22;;;;;;;19.75;12.55;;;;;;;17.28;20.86;98974.25;5012983;28;20036;-69
2022/03/04 10:50:49;;;;;;;21.85;12.50;;;;;;;16.77;21.33;99005.13;5031377;28;20025;-69
2022/03/04 10:53:26;;;;;;;22.25;12.75;;;;;;;17.61;20.01;98999.25;5036073;28;20028;-69
2022/03/04 10:56:07;;;;;;;23.33;13.02;;;;;;;15.78;22.07;99008.44;5033213;28;20025;-69
2022/03/04 10:58:40;;;;;;;20.25;12.13;;;;;;;16.24;22.39;99006.03;5008145;28;20076;-67
2022/03/04 11:01:09;;;;;;;18.17;10.90;;;;;;;16.87;21.11;98999.91;5032868;28;20028;-69
2022/03/04 11:03:35;;;;;;;;;;;;;;;17.66;20.50;99005.66;5031161;28;20397;-69
2022/03/04 11:06:04;;;;;;;20.15;12.20;;;;;;;17.25;20.84;99004.81;5027496;28;19917;-69
2022/03/04 11:08:29;;;;;;;24.40;12.82;;;;;;;18.02;20.42;99000.84;5029189;28;20041;-69
2022/03/04 11:10:57;;;;;;;22.23;13.40;;;;;;;18.20;20.41;98985.25;5013344;28;20051;-69
2022/03/04 11:13:23;;;;;;;17.70;10.57;;;;;;;17.32;19.60;98985.56;5029450;28;20038;-68
2022/03/04 11:15:51;;;;;;;18.38;11.55;;;;;;;17.30;19.47;99010.41;5029020;28;20147;-69